createdAt,value
2019-04-20T00:01:25.729Z,99.90
2019-04-20T00:03:50.224Z,99.90
2019-04-20T00:06:21.541Z,99.90
2019-04-20T00:08:59.850Z,99.90
2019-04-20T00:11:29.614Z,99.90
2019-04-20T00:14:03.830Z,99.90
2019-04-20T00:16:29.312Z,99.90
2019-04-20T00:19:03.150Z,99.90
2019-04-20T00:21:42.722Z,99.90
2019-04-20T00:24:20.058Z,99.90
2019-04-20T00:27:22.127Z,99.90
2019-04-20T00:29:35.565Z,99.90
2019-04-20T00:32:02.800Z,99.90
2019-04-20T00:34:29.525Z,99.90
2019-04-20T00:36:54.047Z,99.90
2019-04-20T00:39:25.762Z,99.90
2019-04-20T00:42:02.326Z,99.90
2019-04-20T00:44:33.288Z,99.90
2019-04-20T00:47:13.325Z,99.90
2019-04-20T00:49:45.442Z,99.90
2019-04-20T00:54:36.921Z,99.90
2019-04-20T00:57:17.665Z,99.90
2019-04-20T00:59:59.227Z,99.90
2019-04-20T01:02:27.287Z,99.90
2019-04-20T01:05:04.394Z,99.90
2019-04-20T01:07:52.005Z,99.90
2019-04-20T01:10:19.288Z,99.90
2019-04-20T01:12:52.056Z,99.90
2019-04-20T01:15:28.031Z,99.90
2019-04-20T01:17:53.661Z,99.90
2019-04-20T01:20:26.330Z,99.90
2019-04-20T01:23:04.198Z,99.90
2019-04-20T01:25:35.268Z,99.90
2019-04-20T01:28:11.926Z,99.90
2019-04-20T01:30:39.733Z,99.90
2019-04-20T01:33:22.824Z,99.90
2019-04-20T01:35:53.470Z,99.90
2019-04-20T01:38:26.222Z,99.90
2019-04-20T01:40:42.133Z,99.90
2019-04-20T01:43:12.466Z,99.90
2019-04-20T01:45:44.067Z,99.90
2019-04-20T01:48:22.910Z,99.90
2019-04-20T01:50:59.858Z,99.90
2019-04-20T01:53:39.343Z,99.90
2019-04-20T01:56:12.454Z,99.90
2019-04-20T01:59:05.067Z,99.90
2019-04-20T02:01:42.394Z,99.90
2019-04-20T02:04:20.362Z,99.90
2019-04-20T02:06:53.453Z,99.90
2019-04-20T02:09:24.041Z,99.90
2019-04-20T02:11:53.438Z,99.90
2019-04-20T02:14:32.216Z,99.90
2019-04-20T02:17:05.406Z,99.90
2019-04-20T02:19:42.289Z,99.90
2019-04-20T02:22:13.290Z,99.90
2019-04-20T02:24:34.058Z,99.90
2019-04-20T02:27:04.244Z,99.90
2019-04-20T02:30:02.774Z,99.90
2019-04-20T02:35:16.175Z,99.90
2019-04-20T02:43:15.087Z,99.90
2019-04-20T02:45:53.367Z,99.90
2019-04-20T02:48:10.017Z,99.90
2019-04-20T02:50:44.564Z,99.90
2019-04-20T02:53:20.351Z,99.90
2019-04-20T02:55:57.666Z,99.90
2019-04-20T03:00:44.446Z,99.90
2019-04-20T03:03:08.079Z,99.90
2019-04-20T03:05:36.816Z,99.90
2019-04-20T03:08:14.603Z,99.90
2019-04-20T03:10:52.553Z,99.90
2019-04-20T03:13:27.018Z,99.90
2019-04-20T03:15:55.981Z,99.90
2019-04-20T03:18:29.987Z,99.90
2019-04-20T03:20:57.758Z,99.90
2019-04-20T03:23:35.676Z,99.90
2019-04-20T03:26:10.992Z,99.90
2019-04-20T03:28:56.643Z,99.90
2019-04-20T03:34:37.729Z,99.90
2019-04-20T03:36:46.937Z,99.90
2019-04-20T03:39:09.809Z,99.90
2019-04-20T03:41:32.495Z,99.90
2019-04-20T03:44:04.176Z,99.90
2019-04-20T03:46:36.678Z,99.90
2019-04-20T03:49:22.706Z,99.90
2019-04-20T03:51:55.943Z,99.90
2019-04-20T03:54:41.335Z,99.90
2019-04-20T03:57:36.529Z,99.90
2019-04-20T04:00:22.053Z,99.90
2019-04-20T04:03:12.644Z,99.90
2019-04-20T04:05:42.525Z,99.90
2019-04-20T04:08:11.756Z,99.90
2019-04-20T04:10:48.493Z,99.90
2019-04-20T04:13:16.902Z,99.90
2019-04-20T04:15:55.042Z,99.90
2019-04-20T04:18:28.055Z,99.90
2019-04-20T04:21:00.107Z,99.90
2019-04-20T04:23:40.821Z,99.90
2019-04-20T04:26:20.362Z,99.90
2019-04-20T04:28:49.029Z,99.90
2019-04-20T04:31:23.260Z,99.90
2019-04-20T04:36:21.194Z,99.90
2019-04-20T04:39:00.558Z,99.90
2019-04-20T04:41:26.841Z,99.90
2019-04-20T04:44:00.120Z,99.90
2019-04-20T04:46:14.515Z,99.90
2019-04-20T04:48:49.119Z,99.90
2019-04-20T04:51:22.717Z,99.90
2019-04-20T04:53:59.388Z,99.90
2019-04-20T04:56:23.428Z,99.90
2019-04-20T04:58:52.232Z,99.90
2019-04-20T05:01:27.417Z,99.90
2019-04-20T05:04:22.772Z,99.90
2019-04-20T05:06:39.826Z,99.90
2019-04-20T05:09:03.300Z,99.90
2019-04-20T05:11:30.229Z,99.90
2019-04-20T05:14:05.679Z,99.90
2019-04-20T05:16:49.988Z,99.90
2019-04-20T05:19:26.506Z,99.90
2019-04-20T05:22:19.415Z,99.90
2019-04-20T05:24:59.409Z,99.90
2019-04-20T05:27:36.330Z,99.90
2019-04-20T05:29:46.731Z,99.90
2019-04-20T05:32:28.499Z,99.90
2019-04-20T05:35:12.277Z,99.90
2019-04-20T05:37:59.592Z,99.90
2019-04-20T05:40:20.489Z,99.90
2019-04-20T05:42:49.980Z,99.90
2019-04-20T05:47:55.262Z,99.90
2019-04-20T05:50:27.408Z,99.90
2019-04-20T05:53:04.499Z,99.90
2019-04-20T05:55:37.439Z,99.90
2019-04-20T05:58:03.684Z,99.90
2019-04-20T06:00:40.207Z,99.90
2019-04-20T06:03:05.530Z,99.90
2019-04-20T06:05:46.004Z,99.90
2019-04-20T06:08:25.001Z,99.90
2019-04-20T06:10:48.057Z,99.90
2019-04-20T06:13:32.672Z,99.90
2019-04-20T06:16:13.941Z,99.90
2019-04-20T06:18:44.485Z,99.90
2019-04-20T06:21:31.253Z,99.90
2019-04-20T06:24:10.674Z,99.90
2019-04-20T06:26:50.923Z,99.90
2019-04-20T06:29:10.036Z,99.90
2019-04-20T06:31:45.946Z,99.90
2019-04-20T06:34:35.504Z,99.90
2019-04-20T06:37:06.965Z,99.90
2019-04-20T06:39:30.893Z,99.90
2019-04-20T06:49:36.670Z,99.90
2019-04-20T06:52:27.430Z,99.90
2019-04-20T06:55:06.943Z,99.90
2019-04-20T06:57:43.190Z,99.90
2019-04-20T07:02:44.658Z,99.90
2019-04-20T07:12:45.087Z,99.90
2019-04-20T07:15:19.928Z,99.90
2019-04-20T07:18:08.145Z,99.90
2019-04-20T07:20:39.790Z,99.90
2019-04-20T07:23:18.919Z,99.90
2019-04-20T07:25:37.490Z,99.90
2019-04-20T07:28:12.336Z,99.90
2019-04-20T07:30:46.435Z,99.90
2019-04-20T07:33:15.716Z,99.90
2019-04-20T07:35:46.525Z,99.90
2019-04-20T07:40:53.285Z,99.90
2019-04-20T07:43:21.267Z,99.90
2019-04-20T07:45:58.711Z,99.90
2019-04-20T07:48:24.819Z,99.90
2019-04-20T07:50:52.147Z,99.90
2019-04-20T07:53:28.398Z,99.90
2019-04-20T07:56:04.901Z,99.90
2019-04-20T07:58:27.336Z,99.90
2019-04-20T08:01:23.782Z,99.90
2019-04-20T08:03:50.166Z,99.90
2019-04-20T08:06:32.169Z,99.90
2019-04-20T08:09:07.174Z,99.90
2019-04-20T08:11:50.355Z,99.90
2019-04-20T08:14:27.191Z,99.90
2019-04-20T08:17:09.688Z,99.90
2019-04-20T08:19:23.485Z,99.90
2019-04-20T08:21:57.107Z,99.90
2019-04-20T08:24:27.809Z,99.90
2019-04-20T08:26:47.202Z,99.40
2019-04-20T08:29:31.650Z,99.70
2019-04-20T08:32:29.244Z,99.70
2019-04-20T08:35:05.647Z,99.40
2019-04-20T08:37:33.181Z,99.60
2019-04-20T08:40:06.988Z,99.50
2019-04-20T08:42:51.243Z,99.60
2019-04-20T08:45:18.065Z,99.20
2019-04-20T08:47:50.285Z,99.30
2019-04-20T08:50:19.864Z,99.50
2019-04-20T08:55:16.560Z,99.40
2019-04-20T08:57:31.313Z,98.80
2019-04-20T09:00:04.618Z,99.50
2019-04-20T09:02:36.908Z,98.90
2019-04-20T09:05:23.972Z,99.20
2019-04-20T09:07:53.964Z,99.90
2019-04-20T09:10:34.323Z,99.90
2019-04-20T09:13:02.638Z,99.40
2019-04-20T09:15:21.113Z,99.30
2019-04-20T09:18:04.978Z,99.80
2019-04-20T09:20:46.221Z,99.70
2019-04-20T09:23:21.303Z,99.10
2019-04-20T09:28:58.951Z,98.90
2019-04-20T09:31:51.895Z,98.60
2019-04-20T09:34:42.563Z,98.10
2019-04-20T09:37:41.349Z,97.80
2019-04-20T09:40:21.545Z,98.50
2019-04-20T09:42:39.896Z,98.30
2019-04-20T09:45:19.758Z,97.90
2019-04-20T09:47:49.404Z,97.70
2019-04-20T09:50:33.684Z,98.00
2019-04-20T09:53:02.403Z,97.40
2019-04-20T09:55:32.893Z,97.20
2019-04-20T09:58:04.913Z,96.80
2019-04-20T10:00:44.623Z,96.40
2019-04-20T10:03:00.323Z,97.30
2019-04-20T10:05:31.528Z,96.70
2019-04-20T10:08:06.114Z,96.70
2019-04-20T10:10:40.590Z,96.40
2019-04-20T10:13:07.490Z,96.60
2019-04-20T10:15:37.620Z,95.10
2019-04-20T10:18:10.051Z,95.10
2019-04-20T10:20:43.148Z,95.00
2019-04-20T10:23:12.519Z,95.20
2019-04-20T10:25:44.597Z,95.00
2019-04-20T10:28:15.880Z,95.10
2019-04-20T10:30:46.647Z,94.70
2019-04-20T10:33:17.646Z,94.10
2019-04-20T10:35:49.640Z,94.00
2019-04-20T10:38:27.567Z,94.10
2019-04-20T10:41:08.408Z,93.80
2019-04-20T10:43:30.461Z,92.40
2019-04-20T10:46:02.703Z,92.30
2019-04-20T10:48:40.253Z,91.60
2019-04-20T10:51:05.238Z,92.20
2019-04-20T10:53:36.613Z,91.00
2019-04-20T10:56:07.524Z,88.90
2019-04-20T10:58:37.904Z,90.70
2019-04-20T11:01:09.470Z,88.00
2019-04-20T11:03:40.723Z,88.10
2019-04-20T11:06:11.081Z,87.60
2019-04-20T11:08:42.547Z,85.80
2019-04-20T11:11:22.489Z,85.80
2019-04-20T11:13:45.643Z,81.60
2019-04-20T11:16:15.802Z,84.80
2019-04-20T11:18:47.283Z,79.30
2019-04-20T11:21:17.962Z,78.50
2019-04-20T11:23:48.066Z,79.10
2019-04-20T11:26:18.189Z,77.60
2019-04-20T11:28:48.404Z,77.00
2019-04-20T11:31:20.051Z,77.80
2019-04-20T11:33:50.377Z,73.10
2019-04-20T11:36:21.474Z,70.80
2019-04-20T11:38:53.044Z,71.30
2019-04-20T11:41:27.461Z,71.30
2019-04-20T11:43:56.027Z,70.70
2019-04-20T11:46:27.057Z,68.70
2019-04-20T11:48:57.582Z,70.70
2019-04-20T11:51:29.766Z,69.60
2019-04-20T11:54:04.243Z,68.20
2019-04-20T11:56:40.032Z,65.90
2019-04-20T11:59:07.257Z,66.30
2019-04-20T12:02:01.128Z,66.40
2019-04-20T12:04:42.029Z,67.00
2019-04-20T12:07:06.834Z,67.20
2019-04-20T12:09:37.701Z,65.00
2019-04-20T12:12:21.925Z,65.70
2019-04-20T12:14:40.852Z,57.00
2019-04-20T12:17:13.355Z,57.50
2019-04-20T12:19:44.391Z,59.40
2019-04-20T12:22:15.933Z,59.50
2019-04-20T12:24:47.962Z,61.20
2019-04-20T12:27:18.692Z,59.80
2019-04-20T12:29:49.870Z,53.70
2019-04-20T12:32:21.721Z,53.90
2019-04-20T12:34:52.188Z,53.00
2019-04-20T12:37:24.982Z,52.80
2019-04-20T12:39:55.446Z,53.50
2019-04-20T12:42:25.854Z,52.50
2019-04-20T12:44:57.701Z,50.70
2019-04-20T12:47:27.926Z,52.60
2019-04-20T12:49:59.343Z,53.50
2019-04-20T12:52:30.384Z,51.50
2019-04-20T12:55:03.447Z,50.80
2019-04-20T12:57:36.592Z,50.30
2019-04-20T13:00:07.678Z,50.80
2019-04-20T13:02:41.041Z,49.70
2019-04-20T13:05:13.455Z,50.90
2019-04-20T13:07:49.248Z,49.00
2019-04-20T13:10:17.862Z,51.00
2019-04-20T13:13:04.649Z,49.50
2019-04-20T13:15:54.371Z,50.30
2019-04-20T13:18:30.034Z,50.20
2019-04-20T13:21:01.605Z,48.40
2019-04-20T13:23:33.108Z,47.80
2019-04-20T13:26:05.846Z,47.80
2019-04-20T13:28:36.846Z,47.90
2019-04-20T13:31:08.083Z,49.10
2019-04-20T13:33:39.060Z,48.60
2019-04-20T13:36:10.282Z,48.40
2019-04-20T13:38:43.950Z,46.40
2019-04-20T13:41:15.664Z,46.30
2019-04-20T13:43:46.036Z,46.70
2019-04-20T13:46:17.069Z,47.00
2019-04-20T13:48:47.362Z,47.30
2019-04-20T13:51:18.854Z,46.90
2019-04-20T13:53:49.046Z,45.40
2019-04-20T13:56:21.767Z,45.00
2019-04-20T13:59:01.546Z,44.00
2019-04-20T14:01:41.154Z,46.20
2019-04-20T14:04:14.810Z,47.80
2019-04-20T14:06:45.732Z,46.50
2019-04-20T14:09:17.197Z,47.80
2019-04-20T14:11:47.873Z,47.00
2019-04-20T14:14:19.215Z,45.20
2019-04-20T14:16:50.467Z,44.80
2019-04-20T14:19:23.218Z,45.20
2019-04-20T14:21:54.221Z,44.90
2019-04-20T14:24:26.804Z,42.10
2019-04-20T14:26:57.203Z,41.40
2019-04-20T14:29:27.486Z,41.80
2019-04-20T14:32:01.565Z,40.80
2019-04-20T14:34:31.278Z,39.40
2019-04-20T14:37:02.534Z,40.30
2019-04-20T14:39:34.219Z,38.80
2019-04-20T14:42:04.612Z,38.50
2019-04-20T14:44:34.930Z,41.20
2019-04-20T14:47:05.615Z,40.50
2019-04-20T14:49:36.787Z,39.90
2019-04-20T14:52:08.208Z,40.60
2019-04-20T14:54:39.400Z,41.00
2019-04-20T14:57:10.121Z,41.80
2019-04-20T14:59:43.737Z,42.00
2019-04-20T15:02:17.221Z,42.30
2019-04-20T15:04:50.334Z,43.40
2019-04-20T15:07:20.553Z,44.10
2019-04-20T15:09:51.084Z,43.00
2019-04-20T15:12:21.637Z,43.90
2019-04-20T15:14:52.554Z,44.00
2019-04-20T15:17:35.051Z,43.80
2019-04-20T15:20:17.228Z,42.40
2019-04-20T15:22:49.823Z,42.70
2019-04-20T15:25:21.309Z,42.70
2019-04-20T15:27:52.339Z,41.50
2019-04-20T15:30:22.550Z,41.10
2019-04-20T15:32:52.977Z,40.40
2019-04-20T15:35:24.655Z,40.10
2019-04-20T15:37:55.468Z,39.20
2019-04-20T15:40:26.991Z,39.10
2019-04-20T15:43:04.577Z,39.00
2019-04-20T15:45:29.441Z,39.60
2019-04-20T15:47:59.712Z,38.20
2019-04-20T15:50:33.844Z,37.90
2019-04-20T15:53:04.178Z,37.50
2019-04-20T15:55:37.996Z,38.10
2019-04-20T15:58:08.281Z,38.30
2019-04-20T16:00:40.476Z,38.60
2019-04-20T16:03:21.405Z,39.50
2019-04-20T16:05:58.819Z,39.60
2019-04-20T16:08:32.448Z,40.80
2019-04-20T16:11:04.653Z,39.70
2019-04-20T16:13:39.528Z,39.20
2019-04-20T16:16:07.899Z,39.20
2019-04-20T16:18:39.171Z,38.80
2019-04-20T16:21:14.238Z,38.60
2019-04-20T16:23:46.324Z,38.30
2019-04-20T16:26:23.857Z,38.80
2019-04-20T16:28:55.470Z,37.60
2019-04-20T16:31:26.877Z,37.30
2019-04-20T16:33:58.726Z,38.10
2019-04-20T16:36:30.490Z,39.40
2019-04-20T16:39:01.591Z,38.10
2019-04-20T16:41:36.029Z,39.50
2019-04-20T16:44:07.203Z,39.30
2019-04-20T16:46:38.330Z,39.30
2019-04-20T16:49:08.523Z,38.40
2019-04-20T16:51:38.963Z,38.00
2019-04-20T16:54:10.115Z,38.50
2019-04-20T16:56:40.239Z,40.00
2019-04-20T16:59:13.222Z,40.30
2019-04-20T17:01:44.379Z,40.20
2019-04-20T17:04:20.611Z,41.20
2019-04-20T17:07:05.945Z,41.90
2019-04-20T17:09:36.084Z,42.10
2019-04-20T17:12:07.744Z,42.70
2019-04-20T17:14:38.008Z,43.20
2019-04-20T17:17:09.484Z,43.70
2019-04-20T17:19:39.945Z,44.90
2019-04-20T17:22:11.588Z,45.10
2019-04-20T17:24:43.123Z,45.00
2019-04-20T17:27:49.171Z,45.70
2019-04-20T17:30:58.977Z,46.10
2019-04-20T17:33:47.145Z,45.90
2019-04-20T17:36:16.742Z,44.80
2019-04-20T17:38:47.309Z,45.50
2019-04-20T17:41:36.189Z,46.00
2019-04-20T17:44:08.197Z,45.50
2019-04-20T17:46:34.168Z,45.90
2019-04-20T17:49:04.201Z,45.60
2019-04-20T17:51:47.350Z,45.60
2019-04-20T17:54:19.834Z,45.70
2019-04-20T17:56:50.518Z,46.30
2019-04-20T17:59:22.215Z,46.20
2019-04-20T18:02:20.381Z,45.80
2019-04-20T18:05:12.637Z,47.80
2019-04-20T18:07:41.122Z,47.80
2019-04-20T18:10:15.973Z,48.20
2019-04-20T18:12:32.833Z,46.90
2019-04-20T18:15:18.195Z,47.00
2019-04-20T18:18:00.357Z,47.60
2019-04-20T18:20:23.193Z,47.40
2019-04-20T18:22:56.883Z,48.10
2019-04-20T18:25:57.456Z,49.20
2019-04-20T18:28:13.626Z,51.80
2019-04-20T18:30:44.796Z,52.90
2019-04-20T18:33:09.419Z,52.50
2019-04-20T18:35:44.381Z,51.70
2019-04-20T18:38:16.303Z,52.50
2019-04-20T18:40:58.168Z,53.60
2019-04-20T18:43:22.022Z,54.00
2019-04-20T18:46:10.705Z,54.30
2019-04-20T18:48:45.194Z,54.50
2019-04-20T18:50:55.561Z,55.90
2019-04-20T18:53:33.660Z,56.10
2019-04-20T18:56:00.835Z,56.00
2019-04-20T18:58:31.211Z,55.70
2019-04-20T19:01:01.537Z,56.40
2019-04-20T19:03:35.742Z,57.50
2019-04-20T19:06:05.997Z,57.10
2019-04-20T19:08:40.517Z,58.40
2019-04-20T19:11:13.169Z,57.80
2019-04-20T19:13:47.770Z,57.80
2019-04-20T19:16:37.626Z,57.60
2019-04-20T19:19:28.575Z,57.60
2019-04-20T19:21:51.967Z,58.70
2019-04-20T19:24:27.425Z,59.10
2019-04-20T19:27:00.315Z,59.80
2019-04-20T19:29:34.637Z,60.10
2019-04-20T19:32:18.241Z,60.40
2019-04-20T19:34:45.409Z,60.40
2019-04-20T19:37:14.202Z,61.30
2019-04-20T19:39:49.409Z,62.10
2019-04-20T19:42:25.600Z,62.50
2019-04-20T19:44:53.882Z,64.10
2019-04-20T19:47:33.152Z,65.00
2019-04-20T19:50:10.987Z,63.50
2019-04-20T19:52:49.248Z,60.50
2019-04-20T19:55:10.564Z,59.30
2019-04-20T19:57:42.137Z,61.60
2019-04-20T19:59:57.656Z,61.30
2019-04-20T20:02:27.664Z,60.20
2019-04-20T20:05:05.367Z,62.30
2019-04-20T20:07:37.972Z,62.20
2019-04-20T20:10:06.924Z,62.30
2019-04-20T20:12:35.652Z,61.70
2019-04-20T20:15:14.274Z,62.00
2019-04-20T20:18:00.308Z,61.80
2019-04-20T20:20:38.192Z,61.90
2019-04-20T20:22:49.768Z,61.80
2019-04-20T20:25:17.047Z,61.60
2019-04-20T20:27:54.115Z,61.60
2019-04-20T20:30:27.798Z,61.60
2019-04-20T20:33:04.742Z,62.10
2019-04-20T20:35:29.097Z,62.20
2019-04-20T20:37:57.897Z,62.40
2019-04-20T20:40:32.855Z,63.40
2019-04-20T20:43:10.782Z,63.40
2019-04-20T20:45:37.001Z,63.50
2019-04-20T20:48:20.094Z,63.40
2019-04-20T20:50:55.651Z,64.30
2019-04-20T20:53:16.447Z,64.80
2019-04-20T20:55:44.366Z,65.20
2019-04-20T20:58:21.275Z,66.30
2019-04-20T21:00:54.356Z,66.50
2019-04-20T21:03:27.090Z,67.70
2019-04-20T21:05:49.590Z,66.40
2019-04-20T21:08:20.170Z,67.90
2019-04-20T21:10:52.632Z,67.80
2019-04-20T21:13:28.381Z,69.10
2019-04-20T21:16:02.986Z,68.30
2019-04-20T21:18:47.526Z,70.00
2019-04-20T21:21:15.045Z,71.20
2019-04-20T21:23:42.791Z,72.40
2019-04-20T21:26:12.882Z,72.20
2019-04-20T21:28:42.018Z,72.20
2019-04-20T21:31:18.105Z,73.60
2019-04-20T21:33:44.890Z,73.40
2019-04-20T21:36:21.127Z,74.10
2019-04-20T21:38:48.385Z,74.30
2019-04-20T21:41:22.036Z,74.10
2019-04-20T21:43:51.890Z,74.80
2019-04-20T21:46:22.875Z,75.50
2019-04-20T21:49:05.621Z,76.40
2019-04-20T21:51:38.349Z,77.60
2019-04-20T21:53:59.794Z,77.60
2019-04-20T21:56:30.105Z,77.80
2019-04-20T21:59:04.087Z,78.40
2019-04-20T22:01:39.052Z,80.40
2019-04-20T22:04:04.002Z,80.50
2019-04-20T22:06:36.220Z,82.50
2019-04-20T22:09:12.712Z,84.50
2019-04-20T22:11:44.582Z,86.60
2019-04-20T22:14:20.379Z,89.90
2019-04-20T22:16:50.165Z,90.90
2019-04-20T22:19:30.712Z,92.10
2019-04-20T22:22:02.790Z,93.00
2019-04-20T22:24:40.271Z,94.60
2019-04-20T22:27:06.341Z,95.50
2019-04-20T22:29:28.071Z,96.10
2019-04-20T22:32:03.987Z,96.00
2019-04-20T22:34:31.910Z,96.90
2019-04-20T22:37:02.572Z,96.30
2019-04-20T22:39:44.613Z,97.20
2019-04-20T22:42:12.457Z,96.90
2019-04-20T22:44:39.532Z,97.40
2019-04-20T22:47:17.120Z,98.20
2019-04-20T22:50:00.036Z,97.80
2019-04-20T22:52:30.389Z,98.40
2019-04-20T22:54:59.644Z,99.30
2019-04-20T22:57:31.748Z,99.90
2019-04-20T22:59:58.307Z,99.90
2019-04-20T23:02:23.629Z,99.90
2019-04-20T23:04:54.937Z,99.20
2019-04-20T23:07:26.443Z,99.00
2019-04-20T23:09:59.528Z,99.90
2019-04-20T23:12:30.328Z,99.90
2019-04-20T23:15:00.809Z,99.90
2019-04-20T23:17:38.146Z,99.90
2019-04-20T23:20:03.653Z,99.90
2019-04-20T23:22:40.879Z,99.90
2019-04-20T23:25:07.142Z,99.90
2019-04-20T23:27:39.092Z,99.90
2019-04-20T23:30:13.130Z,99.90
2019-04-20T23:32:42.173Z,99.90
2019-04-20T23:35:18.134Z,99.90
2019-04-20T23:37:46.295Z,99.90
2019-04-20T23:40:16.824Z,99.90
2019-04-20T23:42:51.723Z,99.90
2019-04-20T23:45:43.815Z,99.90
2019-04-20T23:48:23.647Z,99.90
2019-04-20T23:51:08.298Z,99.90
2019-04-20T23:53:40.268Z,99.90
2019-04-20T23:55:59.518Z,99.90
2019-04-20T23:58:30.933Z,99.90
